Time;durP1;ratioP1;P1;durP2;ratioP2;P2;SDS_P1;SDS_P2;PMS_P1;PMS_P2;Temp;Humidity;BMP_temperature;BMP_pressure;BME280_temperature;BME280_humidity;BME280_pressure;Samples;Min_cycle;Max_cycle;Signal;HPM_P1;HPM_P2
2022/09/16 00:00:31;;;;;;;66.90;8.47;;;15.20;99.90;;;;;;5020057;28;20172;-82
2022/09/16 00:02:57;;;;;;;72.77;10.73;;;15.20;99.90;;;;;;5019202;28;20422;-83
2022/09/16 00:05:23;;;;;;;78.23;12.00;;;15.20;99.90;;;;;;5019477;28;20536;-82
2022/09/16 00:07:49;;;;;;;67.03;11.50;;;15.20;99.90;;;;;;5020554;28;20462;-83
2022/09/16 00:10:15;;;;;;;69.10;10.93;;;15.20;99.90;;;;;;5020708;28;20172;-83
2022/09/16 00:12:41;;;;;;;67.27;9.77;;;15.20;99.90;;;;;;5018971;28;20175;-82
2022/09/16 00:15:07;;;;;;;68.53;12.57;;;15.20;99.90;;;;;;5019608;28;20417;-83
2022/09/16 00:17:33;;;;;;;67.90;9.70;;;15.20;99.90;;;;;;5020276;28;20215;-83
2022/09/16 00:19:59;;;;;;;70.80;8.07;;;15.30;99.90;;;;;;5020241;28;20497;-83
2022/09/16 00:22:27;;;;;;;67.07;9.67;;;15.30;99.90;;;;;;5019460;28;20407;-83
2022/09/16 00:24:53;;;;;;;68.10;9.63;;;15.20;99.90;;;;;;5018639;28;20538;-82
2022/09/16 00:27:19;;;;;;;68.33;12.30;;;15.20;99.90;;;;;;5019771;28;20851;-82
2022/09/16 00:29:44;;;;;;;68.17;10.73;;;15.20;99.90;;;;;;5019106;28;20230;-83
2022/09/16 00:32:10;;;;;;;68.77;9.73;;;15.20;99.90;;;;;;5020462;28;20254;-83
2022/09/16 00:34:36;;;;;;;71.30;9.93;;;15.20;99.90;;;;;;5018759;28;20265;-82
2022/09/16 00:37:02;;;;;;;67.87;11.37;;;15.20;99.90;;;;;;5019541;28;20427;-83
2022/09/16 00:39:28;;;;;;;70.00;11.27;;;15.20;99.90;;;;;;5018226;28;20543;-83
2022/09/16 00:41:54;;;;;;;67.37;11.77;;;15.20;99.90;;;;;;5018799;28;20432;-83
2022/09/16 00:44:51;;;;;;;67.77;10.90;;;15.10;99.90;;;;;;5021063;28;20416;-83
2022/09/16 00:47:30;;;;;;;69.27;13.77;;;15.10;99.90;;;;;;5020332;28;20206;-83
2022/09/16 00:50:01;;;;;;;69.90;14.80;;;15.10;99.90;;;;;;5018804;28;20541;-83
2022/09/16 00:52:28;;;;;;;75.30;18.17;;;15.10;99.90;;;;;;5020267;28;20478;-83
2022/09/16 00:54:54;;;;;;;68.57;15.70;;;15.10;99.90;;;;;;5018707;28;20403;-83
2022/09/16 00:57:20;;;;;;;70.80;15.90;;;15.20;99.90;;;;;;5020209;28;20450;-83
2022/09/16 00:59:51;;;;;;;68.97;14.20;;;15.20;99.90;;;;;;5018056;28;20403;-83
2022/09/16 01:02:19;;;;;;;76.80;20.67;;;15.10;99.90;;;;;;5020114;28;20187;-83
2022/09/16 01:04:59;;;;;;;71.50;19.20;;;15.00;99.90;;;;;;5018256;28;20411;-82
2022/09/16 01:07:44;;;;;;;72.43;21.73;;;15.00;99.90;;;;;;5020549;28;20743;-83
2022/09/16 01:10:13;;;;;;;75.77;20.40;;;15.00;99.90;;;;;;5018952;28;20818;-83
2022/09/16 01:12:43;;;;;;;70.97;19.37;;;15.00;99.90;;;;;;5020275;28;21009;-83
2022/09/16 01:15:10;;;;;;;76.50;24.43;;;15.00;99.90;;;;;;5019955;28;20517;-83
2022/09/16 01:17:57;;;;;;;73.23;22.60;;;15.00;99.90;;;;;;5019974;28;20428;-84
2022/09/16 01:20:44;;;;;;;74.87;26.63;;;15.00;99.90;;;;;;5018790;28;20502;-83
2022/09/16 01:23:28;;;;;;;76.63;28.90;;;14.90;99.90;;;;;;5017781;28;20402;-83
2022/09/16 01:26:05;;;;;;;72.67;23.13;;;14.90;99.90;;;;;;5019153;28;20433;-82
2022/09/16 01:28:51;;;;;;;77.27;30.50;;;14.90;99.90;;;;;;5019466;28;20933;-82
2022/09/16 01:31:20;;;;;;;75.87;26.80;;;14.90;99.90;;;;;;5016675;28;20492;-82
2022/09/16 01:34:14;;;;;;;75.90;27.57;;;15.00;99.90;;;;;;5019731;28;20406;-82
2022/09/16 01:37:11;;;;;;;72.47;24.17;;;15.00;99.90;;;;;;5018810;28;20470;-82
2022/09/16 01:40:02;;;;;;;78.23;29.13;;;15.00;99.90;;;;;;5019394;28;20897;-82
2022/09/16 01:43:02;;;;;;;80.30;31.60;;;14.90;99.90;;;;;;5017809;28;20482;-83
2022/09/16 01:45:44;;;;;;;79.03;38.73;;;14.90;99.90;;;;;;5018677;28;20461;-83
2022/09/16 01:48:34;;;;;;;79.50;35.63;;;14.90;99.90;;;;;;5017177;28;20481;-82
2022/09/16 01:51:04;;;;;;;82.43;34.17;;;14.90;99.90;;;;;;5018146;28;20414;-83
2022/09/16 01:53:36;;;;;;;79.33;39.40;;;14.80;99.90;;;;;;5018209;28;20980;-83
2022/09/16 01:56:09;;;;;;;77.33;33.97;;;14.90;99.90;;;;;;5018169;28;20410;-82
2022/09/16 01:58:54;;;;;;;79.93;39.90;;;15.00;99.90;;;;;;5017923;28;20516;-83
2022/09/16 02:01:36;;;;;;;78.47;36.53;;;15.00;99.90;;;;;;5017474;28;20406;-83
2022/09/16 02:04:16;;;;;;;76.77;39.53;;;15.00;99.90;;;;;;5019383;28;20383;-83
2022/09/16 02:06:45;;;;;;;78.73;39.83;;;15.00;99.90;;;;;;5019240;28;20909;-83
2022/09/16 02:09:18;;;;;;;76.80;39.07;;;15.00;99.90;;;;;;5017447;28;20414;-82
2022/09/16 02:11:48;;;;;;;75.47;32.20;;;15.00;99.90;;;;;;5019222;28;20511;-83
2022/09/16 02:14:25;;;;;;;82.97;39.93;;;15.00;99.90;;;;;;5018929;28;20443;-82
2022/09/16 02:17:22;;;;;;;81.53;38.77;;;15.00;99.90;;;;;;5019592;28;20800;-83
2022/09/16 02:19:54;;;;;;;82.83;38.10;;;14.90;99.90;;;;;;5007750;28;20469;-82
2022/09/16 02:22:40;;;;;;;82.33;35.93;;;14.90;99.90;;;;;;5019266;28;20470;-82
2022/09/16 02:25:08;;;;;;;74.60;32.67;;;14.90;99.90;;;;;;5018827;28;20472;-82
2022/09/16 02:27:37;;;;;;;77.43;35.70;;;14.80;99.90;;;;;;5018816;28;20795;-83
2022/09/16 02:30:07;;;;;;;82.60;35.77;;;14.80;99.90;;;;;;5018947;28;20498;-83
2022/09/16 02:32:37;;;;;;;77.60;41.43;;;14.80;99.90;;;;;;5021690;28;20456;-83
2022/09/16 02:35:05;;;;;;;86.10;42.90;;;14.80;99.90;;;;;;5022533;28;20894;-83
2022/09/16 02:37:43;;;;;;;80.27;41.90;;;14.70;99.90;;;;;;5022758;28;20470;-83
2022/09/16 02:40:16;;;;;;;82.37;37.47;;;14.80;99.90;;;;;;5023349;28;20436;-83
2022/09/16 02:42:42;;;;;;;81.10;38.27;;;14.70;99.90;;;;;;5022500;28;20390;-83
2022/09/16 02:45:08;;;;;;;81.67;42.43;;;14.80;99.90;;;;;;5021981;28;20437;-83
2022/09/16 02:47:53;;;;;;;80.83;43.63;;;14.70;99.90;;;;;;5021205;28;20567;-82
2022/09/16 02:50:40;;;;;;;79.80;40.80;;;14.80;99.90;;;;;;5021310;28;20413;-83
2022/09/16 02:53:17;;;;;;;80.83;40.20;;;14.80;99.90;;;;;;5020768;28;20401;-83
2022/09/16 02:56:05;;;;;;;81.20;42.67;;;14.80;99.90;;;;;;5020948;28;20779;-83
2022/09/16 02:58:31;;;;;;;83.70;41.10;;;14.70;99.90;;;;;;5022181;28;20493;-82
2022/09/16 03:00:57;;;;;;;79.03;38.30;;;14.70;99.90;;;;;;5024020;28;20902;-83
2022/09/16 03:03:23;;;;;;;80.10;36.17;;;14.80;99.90;;;;;;5025258;28;20409;-83
2022/09/16 03:06:07;;;;;;;79.87;35.20;;;14.80;99.90;;;;;;5023841;28;20447;-84
2022/09/16 03:08:34;;;;;;;77.40;39.00;;;14.80;99.90;;;;;;5021959;28;20422;-84
2022/09/16 03:11:10;;;;;;;77.37;35.03;;;14.70;99.90;;;;;;5021927;28;20401;-84
2022/09/16 03:14:02;;;;;;;79.80;37.83;;;14.70;99.90;;;;;;5020931;28;20894;-84
2022/09/16 03:16:31;;;;;;;90.57;39.30;;;14.70;99.90;;;;;;5019806;28;20415;-84
2022/09/16 03:19:26;;;;;;;83.27;43.77;;;14.80;99.90;;;;;;5021462;28;20434;-84
2022/09/16 03:22:05;;;;;;;85.43;40.30;;;14.80;99.90;;;;;;5022817;28;20451;-83
2022/09/16 03:24:37;;;;;;;78.30;36.70;;;14.80;99.90;;;;;;5022060;28;20379;-83
2022/09/16 03:27:39;;;;;;;82.07;39.87;;;14.80;99.90;;;;;;5021900;28;20430;-83
2022/09/16 03:30:08;;;;;;;78.73;43.60;;;14.80;99.90;;;;;;5013770;28;20419;-84
2022/09/16 03:32:50;;;;;;;79.17;41.20;;;14.70;99.90;;;;;;5023299;28;20395;-83
2022/09/16 03:35:27;;;;;;;82.97;47.53;;;14.70;99.90;;;;;;5022371;28;20404;-83
2022/09/16 03:37:56;;;;;;;82.87;49.00;;;14.70;99.90;;;;;;5020535;28;20430;-83
2022/09/16 03:40:22;;;;;;;85.10;48.90;;;14.60;99.90;;;;;;5023486;28;20464;-83
2022/09/16 03:42:48;;;;;;;84.53;49.17;;;14.70;99.90;;;;;;5022292;28;20398;-83
2022/09/16 03:45:20;;;;;;;85.50;54.53;;;14.70;99.90;;;;;;5023061;28;20494;-83
2022/09/16 03:47:48;;;;;;;86.97;55.13;;;14.80;99.90;;;;;;5023510;28;20253;-83
2022/09/16 03:50:15;;;;;;;83.67;51.23;;;14.70;99.90;;;;;;5021803;28;20413;-82
2022/09/16 03:52:40;;;;;;;83.80;52.60;;;14.60;99.90;;;;;;5022666;28;20767;-83
2022/09/16 03:55:07;;;;;;;87.87;50.87;;;14.50;99.90;;;;;;5021735;28;20398;-83
2022/09/16 03:57:33;;;;;;;85.40;47.73;;;14.60;99.90;;;;;;5004985;28;20198;-83
2022/09/16 03:59:59;;;;;;;81.83;44.60;;;14.60;99.90;;;;;;5022000;28;20390;-83
2022/09/16 04:02:24;;;;;;;81.90;42.70;;;14.60;99.90;;;;;;5022676;28;20469;-83
2022/09/16 04:04:51;;;;;;;81.20;42.90;;;14.60;99.90;;;;;;5020916;28;20172;-82
2022/09/16 04:07:17;;;;;;;85.43;36.53;;;14.60;99.90;;;;;;5022013;28;20546;-83
2022/09/16 04:09:42;;;;;;;80.53;46.87;;;14.60;99.90;;;;;;5021989;28;20408;-83
2022/09/16 04:12:08;;;;;;;76.37;39.63;;;14.60;99.90;;;;;;5022503;28;20484;-83
2022/09/16 04:14:35;;;;;;;84.20;36.53;;;14.70;99.90;;;;;;5021814;28;20164;-83
2022/09/16 04:17:01;;;;;;;76.83;29.53;;;14.70;99.90;;;;;;5019881;28;20192;-83
2022/09/16 04:19:27;;;;;;;80.20;31.93;;;14.60;99.90;;;;;;5019838;28;20410;-81
2022/09/16 04:21:52;;;;;;;80.30;37.73;;;14.60;99.90;;;;;;5020355;28;20448;-83
2022/09/16 04:24:18;;;;;;;77.17;28.93;;;14.60;99.90;;;;;;5022212;28;20178;-83
2022/09/16 04:26:44;;;;;;;77.80;25.40;;;14.60;99.90;;;;;;5019954;28;20284;-82
2022/09/16 04:29:10;;;;;;;81.10;32.70;;;14.50;99.90;;;;;;5020902;28;20397;-83
2022/09/16 04:31:36;;;;;;;79.33;30.60;;;14.50;99.90;;;;;;5020940;28;20398;-83
2022/09/16 04:34:03;;;;;;;73.50;30.37;;;14.50;99.90;;;;;;5022008;28;20408;-82
2022/09/16 04:36:29;;;;;;;78.60;30.87;;;14.50;99.90;;;;;;5020334;28;20183;-82
2022/09/16 04:38:54;;;;;;;79.10;30.20;;;14.50;99.90;;;;;;5020779;28;20543;-82
2022/09/16 04:41:23;;;;;;;72.60;24.23;;;14.50;99.90;;;;;;5022048;28;20409;-83
2022/09/16 04:43:57;;;;;;;82.50;28.20;;;14.40;99.90;;;;;;5020927;28;20167;-83
2022/09/16 04:46:27;;;;;;;74.27;25.67;;;14.30;99.90;;;;;;5019172;28;20484;-82
2022/09/16 04:48:54;;;;;;;75.30;28.40;;;14.40;99.90;;;;;;5020062;28;20465;-84
2022/09/16 04:51:21;;;;;;;74.07;25.33;;;14.30;99.90;;;;;;5021922;28;20413;-83
2022/09/16 04:53:48;;;;;;;75.97;28.33;;;14.30;99.90;;;;;;5021174;28;20486;-83
2022/09/16 04:56:16;;;;;;;77.77;36.80;;;14.20;99.90;;;;;;5021745;28;20971;-81
2022/09/16 04:58:43;;;;;;;72.50;23.40;;;14.20;99.90;;;;;;5022321;28;20997;-83
2022/09/16 05:01:14;;;;;;;74.27;28.47;;;14.20;99.90;;;;;;5020357;28;20420;-83
2022/09/16 05:03:45;;;;;;;74.00;28.90;;;14.10;99.90;;;;;;5020446;28;20390;-83
2022/09/16 05:06:14;;;;;;;86.30;32.43;;;14.10;99.90;;;;;;5021429;28;20445;-83
2022/09/16 05:08:40;;;;;;;80.03;27.67;;;14.10;99.90;;;;;;5019685;28;20436;-82
2022/09/16 05:11:09;;;;;;;74.10;29.27;;;14.10;99.90;;;;;;5019377;28;20808;-83
2022/09/16 05:13:35;;;;;;;76.10;34.63;;;14.10;99.90;;;;;;5019431;28;20405;-83
2022/09/16 05:16:21;;;;;;;80.87;40.50;;;14.10;99.90;;;;;;5021621;28;20420;-83
2022/09/16 05:18:49;;;;;;;80.43;38.40;;;14.10;99.90;;;;;;5021607;28;20452;-83
2022/09/16 05:21:18;;;;;;;75.93;28.97;;;14.10;99.90;;;;;;5018992;28;20415;-83
2022/09/16 05:23:44;;;;;;;77.07;36.13;;;14.10;99.90;;;;;;5019867;28;20397;-81
2022/09/16 05:26:16;;;;;;;81.03;35.27;;;14.10;99.90;;;;;;5018836;28;20444;-81
2022/09/16 05:28:42;;;;;;;78.37;36.10;;;14.20;99.90;;;;;;5020406;28;20424;-82
2022/09/16 05:31:14;;;;;;;75.97;33.60;;;14.10;99.90;;;;;;5021566;28;20900;-82
2022/09/16 05:33:41;;;;;;;80.97;41.57;;;14.10;99.90;;;;;;5019773;28;20543;-83
2022/09/16 05:36:09;;;;;;;80.03;40.93;;;14.10;99.90;;;;;;5020074;28;20404;-83
2022/09/16 05:38:35;;;;;;;83.03;37.73;;;14.10;99.90;;;;;;5021048;28;20449;-82
2022/09/16 05:41:02;;;;;;;76.53;33.47;;;14.10;99.90;;;;;;5021038;28;20400;-83
2022/09/16 05:43:28;;;;;;;79.00;32.03;;;14.00;99.90;;;;;;5019234;28;20201;-83
2022/09/16 05:45:54;;;;;;;74.37;26.27;;;14.10;99.90;;;;;;5018763;28;20821;-83
2022/09/16 05:48:21;;;;;;;75.67;26.63;;;14.20;99.90;;;;;;5018364;28;20187;-83
2022/09/16 05:51:01;;;;;;;74.80;26.10;;;14.20;99.90;;;;;;5017305;28;20400;-83
2022/09/16 05:53:29;;;;;;;75.27;25.20;;;14.10;99.90;;;;;;5018322;28;20891;-83
2022/09/16 05:56:00;;;;;;;74.33;24.50;;;14.10;99.90;;;;;;5017551;28;20416;-83
2022/09/16 05:58:28;;;;;;;71.20;22.67;;;14.20;99.90;;;;;;5017255;28;20420;-82
2022/09/16 06:01:16;;;;;;;75.80;23.43;;;14.20;99.90;;;;;;5017482;28;20404;-82
2022/09/16 06:03:44;;;;;;;74.70;26.13;;;14.20;99.90;;;;;;5018099;28;20392;-83
2022/09/16 06:06:25;;;;;;;73.40;22.63;;;14.20;99.90;;;;;;5017036;28;20444;-82
2022/09/16 06:08:57;;;;;;;75.57;23.57;;;14.20;99.90;;;;;;5016499;28;21027;-82
2022/09/16 06:11:24;;;;;;;75.40;23.90;;;14.20;99.90;;;;;;5017494;28;20869;-83
2022/09/16 06:13:58;;;;;;;71.00;21.93;;;14.20;99.90;;;;;;5015957;28;20915;-82
2022/09/16 06:16:25;;;;;;;72.10;20.90;;;14.30;99.90;;;;;;5015959;28;20435;-83
2022/09/16 06:18:56;;;;;;;73.60;20.50;;;14.30;99.90;;;;;;5015264;28;20429;-81
2022/09/16 06:21:22;;;;;;;75.57;25.00;;;14.20;99.90;;;;;;5014991;28;20409;-83
2022/09/16 06:23:48;;;;;;;72.53;19.87;;;14.30;99.90;;;;;;5016170;28;20436;-81
2022/09/16 06:26:17;;;;;;;74.60;29.47;;;14.30;99.90;;;;;;5015351;28;20449;-82
2022/09/16 06:28:43;;;;;;;73.43;22.03;;;14.30;99.90;;;;;;5014808;28;20430;-81
2022/09/16 06:31:17;;;;;;;73.03;18.93;;;14.40;99.90;;;;;;5015333;28;20397;-83
2022/09/16 06:33:43;;;;;;;72.20;21.17;;;14.40;99.90;;;;;;5015672;28;20482;-83
2022/09/16 06:36:12;;;;;;;72.47;23.93;;;14.40;99.90;;;;;;5014637;28;20449;-82
2022/09/16 06:38:38;;;;;;;72.93;20.07;;;14.40;99.90;;;;;;5014182;28;20848;-81
2022/09/16 06:41:07;;;;;;;74.40;19.20;;;14.40;99.90;;;;;;5015660;28;20406;-81
2022/09/16 06:43:34;;;;;;;71.70;20.37;;;14.40;99.90;;;;;;5015949;28;20434;-82
2022/09/16 06:46:02;;;;;;;70.97;20.10;;;14.40;99.90;;;;;;5015868;28;20464;-82
2022/09/16 06:48:28;;;;;;;71.77;20.37;;;14.40;99.90;;;;;;5015426;28;20439;-83
2022/09/16 06:51:05;;;;;;;73.63;20.20;;;14.40;99.90;;;;;;5015324;28;20421;-83
2022/09/16 06:53:31;;;;;;;70.50;15.73;;;14.50;99.90;;;;;;5014097;28;20776;-83
2022/09/16 06:56:02;;;;;;;70.03;14.13;;;14.50;99.90;;;;;;5014437;28;20773;-83
2022/09/16 06:58:31;;;;;;;68.80;14.80;;;14.70;99.90;;;;;;5016057;28;20432;-82
2022/09/16 07:00:57;;;;;;;81.33;15.07;;;14.70;99.90;;;;;;5015861;28;20405;-81
2022/09/16 07:03:23;;;;;;;76.80;15.80;;;14.70;99.90;;;;;;5015440;28;20424;-82
2022/09/16 07:05:56;;;;;;;68.90;12.10;;;14.70;99.90;;;;;;5016155;28;20190;-82
2022/09/16 07:08:22;;;;;;;69.40;15.77;;;14.70;99.90;;;;;;5015548;28;20267;-83
2022/09/16 07:11:06;;;;;;;74.67;16.53;;;14.60;99.90;;;;;;5015372;28;20405;-82
2022/09/16 07:13:33;;;;;;;71.87;16.27;;;14.60;99.90;;;;;;5014587;28;20921;-82
2022/09/16 07:16:10;;;;;;;71.50;16.50;;;14.60;99.90;;;;;;5016256;28;20460;-83
2022/09/16 07:18:37;;;;;;;70.60;18.43;;;14.70;99.90;;;;;;5017343;28;20518;-82
2022/09/16 07:21:05;;;;;;;71.23;20.10;;;14.50;99.90;;;;;;5019618;28;20488;-82
2022/09/16 07:23:32;;;;;;;68.93;15.93;;;14.60;99.90;;;;;;5019661;28;20404;-82
2022/09/16 07:26:02;;;;;;;70.93;15.00;;;14.70;99.90;;;;;;5019626;28;20539;-83
2022/09/16 07:28:28;;;;;;;69.43;15.60;;;14.80;99.90;;;;;;5017911;28;20428;-82
2022/09/16 07:30:54;;;;;;;72.27;16.90;;;14.80;99.90;;;;;;5017621;28;20748;-83
2022/09/16 07:33:20;;;;;;;68.77;14.73;;;14.90;99.90;;;;;;5019421;28;20187;-83
2022/09/16 07:35:45;;;;;;;72.73;16.50;;;15.00;99.90;;;;;;5018819;28;20405;-81
2022/09/16 07:38:14;;;;;;;69.70;17.10;;;15.00;99.90;;;;;;5017787;28;20214;-82
2022/09/16 07:40:40;;;;;;;69.50;14.77;;;15.00;99.90;;;;;;5018475;28;20643;-82
2022/09/16 07:43:06;;;;;;;73.27;15.50;;;14.90;99.90;;;;;;5018727;28;20404;-81
2022/09/16 07:45:31;;;;;;;69.43;15.77;;;14.80;99.90;;;;;;5017258;28;20980;-82
2022/09/16 07:47:57;;;;;;;69.17;17.20;;;14.80;99.90;;;;;;5019413;28;20201;-82
2022/09/16 07:50:22;;;;;;;76.40;28.50;;;14.80;99.90;;;;;;5019750;28;20234;-83
2022/09/16 07:52:55;;;;;;;73.20;21.20;;;14.90;99.90;;;;;;5019933;28;20234;-82
2022/09/16 07:55:21;;;;;;;68.57;13.80;;;15.00;99.90;;;;;;5018324;28;20169;-81
2022/09/16 07:57:47;;;;;;;72.20;15.47;;;15.00;99.90;;;;;;5016744;28;20507;-83
2022/09/16 08:00:15;;;;;;;75.23;15.37;;;15.00;99.90;;;;;;5018666;28;20515;-82
2022/09/16 08:02:41;;;;;;;68.80;14.90;;;15.20;99.90;;;;;;5018617;28;20246;-82
2022/09/16 08:05:08;;;;;;;71.67;15.23;;;15.30;99.90;;;;;;5017599;28;20483;-83
2022/09/16 08:07:34;;;;;;;71.20;13.83;;;15.30;99.90;;;;;;5018141;28;20505;-82
2022/09/16 08:09:59;;;;;;;70.90;13.17;;;15.40;99.90;;;;;;5016806;28;20887;-82
2022/09/16 08:12:25;;;;;;;75.20;15.47;;;15.40;99.90;;;;;;5018591;28;20433;-83
2022/09/16 08:14:51;;;;;;;70.70;15.47;;;15.40;99.90;;;;;;5017903;28;20162;-83
2022/09/16 08:17:16;;;;;;;69.30;14.73;;;15.40;99.90;;;;;;5018163;28;20184;-83
2022/09/16 08:19:42;;;;;;;69.83;15.40;;;15.40;99.90;;;;;;5017898;28;20173;-82
2022/09/16 08:22:07;;;;;;;71.37;17.73;;;15.50;99.90;;;;;;5016521;28;20205;-84
2022/09/16 08:24:33;;;;;;;73.20;17.70;;;15.50;99.10;;;;;;5018638;28;20165;-83
2022/09/16 08:26:59;;;;;;;71.03;12.80;;;15.60;97.10;;;;;;5017777;28;20619;-83
2022/09/16 08:29:25;;;;;;;74.40;11.77;;;15.70;94.60;;;;;;5017264;28;20652;-81
2022/09/16 08:31:50;;;;;;;73.47;12.63;;;15.70;93.30;;;;;;5018554;28;20164;-82
2022/09/16 08:34:16;;;;;;;70.80;11.63;;;15.70;93.40;;;;;;5017968;28;20213;-82
2022/09/16 08:36:42;;;;;;;66.23;8.30;;;15.70;94.30;;;;;;5017669;28;20750;-82
2022/09/16 08:39:09;;;;;;;69.93;9.57;;;15.70;92.00;;;;;;5015808;28;20186;-82
2022/09/16 08:42:03;;;;;;;74.43;10.17;;;15.60;91.90;;;;;;5017754;28;20172;-82
2022/09/16 08:45:09;;;;;;;68.60;7.30;;;15.70;90.60;;;;;;5017928;28;20380;-82
2022/09/16 08:47:51;;;;;;;71.63;7.97;;;15.70;91.80;;;;;;5017487;28;20478;-82
2022/09/16 08:50:32;;;;;;;68.53;5.93;;;15.70;91.90;;;;;;5017368;28;20415;-82
2022/09/16 08:53:01;;;;;;;65.67;5.47;;;15.80;90.20;;;;;;5016067;28;20507;-82
2022/09/16 08:55:36;;;;;;;65.97;4.30;;;15.90;85.50;;;;;;5017892;28;20411;-83
2022/09/16 08:58:29;;;;;;;68.70;6.70;;;15.90;78.80;;;;;;5017526;28;20857;-83
2022/09/16 09:01:10;;;;;;;69.63;4.70;;;16.00;89.10;;;;;;5015979;28;20408;-82
2022/09/16 09:03:41;;;;;;;67.40;4.47;;;16.10;82.90;;;;;;5017193;28;20761;-82
2022/09/16 09:06:19;;;;;;;65.27;3.47;;;16.20;77.70;;;;;;5016916;28;20443;-83
2022/09/16 09:09:19;;;;;;;66.17;3.83;;;16.10;71.30;;;;;;5015344;28;20489;-83
2022/09/16 09:12:13;;;;;;;66.30;3.47;;;16.10;75.40;;;;;;5003914;28;20416;-83
2022/09/16 09:14:45;;;;;;;72.83;4.53;;;16.10;74.00;;;;;;5016603;28;20412;-80
2022/09/16 09:17:53;;;;;;;65.70;3.50;;;16.10;78.40;;;;;;5016868;28;20416;-81
2022/09/16 09:20:51;;;;;;;69.60;3.50;;;16.10;76.30;;;;;;5016725;28;20474;-81
2022/09/16 09:23:33;;;;;;;65.17;3.00;;;16.10;71.50;;;;;;4995207;28;20627;-82
2022/09/16 09:26:31;;;;;;;69.20;2.93;;;16.10;70.30;;;;;;5016758;28;20946;-81
2022/09/16 09:29:00;;;;;;;67.23;3.60;;;16.20;69.50;;;;;;5015344;28;20439;-82
2022/09/16 09:31:50;;;;;;;66.80;2.87;;;16.20;55.30;;;;;;5017557;28;20408;-82
2022/09/16 09:34:34;;;;;;;69.37;3.30;;;16.40;59.10;;;;;;5016669;28;20394;-83
2022/09/16 09:37:18;;;;;;;65.30;3.00;;;16.80;53.50;;;;;;5015325;28;20506;-83
2022/09/16 09:40:22;;;;;;;66.67;3.10;;;17.00;51.00;;;;;;5016082;28;20412;-83
2022/09/16 09:43:13;;;;;;;67.70;2.97;;;17.10;42.60;;;;;;5014968;28;20439;-82
2022/09/16 09:46:03;;;;;;;65.83;2.73;;;17.20;41.10;;;;;;5014502;28;20456;-83
2022/09/16 09:48:40;;;;;;;70.03;3.27;;;17.10;38.90;;;;;;5014835;28;20441;-83
2022/09/16 09:51:36;;;;;;;70.93;3.27;;;17.10;35.70;;;;;;5016463;28;20416;-82
2022/09/16 09:54:28;;;;;;;65.00;2.73;;;17.00;36.80;;;;;;5003338;28;20905;-82
2022/09/16 09:57:29;;;;;;;64.07;2.50;;;16.90;42.60;;;;;;5008347;28;20475;-83
2022/09/16 10:00:10;;;;;;;65.80;2.70;;;16.90;46.90;;;;;;5015149;28;20440;-83
2022/09/16 10:02:39;;;;;;;66.10;2.93;;;16.80;35.90;;;;;;5015241;28;20405;-82
2022/09/16 10:05:06;;;;;;;65.43;2.97;;;16.80;39.00;;;;;;5017057;28;20466;-82
2022/09/16 10:07:36;;;;;;;63.93;2.40;;;16.70;45.10;;;;;;5016572;28;20518;-84
2022/09/16 10:10:16;;;;;;;65.47;2.80;;;16.80;50.00;;;;;;5015322;28;20432;-82
2022/09/16 10:12:42;;;;;;;65.83;2.37;;;17.00;45.70;;;;;;5014944;28;20406;-83
2022/09/16 10:15:29;;;;;;;64.27;2.17;;;17.20;36.40;;;;;;5016405;28;20440;-83
2022/09/16 10:17:56;;;;;;;66.07;2.60;;;17.40;32.00;;;;;;5016281;28;20677;-82
2022/09/16 10:20:35;;;;;;;71.10;3.33;;;17.70;30.80;;;;;;5015694;28;20409;-83
2022/09/16 10:23:09;;;;;;;67.97;3.40;;;17.90;24.00;;;;;;5016525;28;20390;-83
2022/09/16 10:25:35;;;;;;;66.10;3.07;;;18.00;19.80;;;;;;5015046;28;20528;-82
2022/09/16 10:28:04;;;;;;;65.80;4.63;;;18.10;19.60;;;;;;5015169;28;20420;-82
2022/09/16 10:30:42;;;;;;;66.50;5.17;;;18.30;7.40;;;;;;5013814;28;20939;-82
2022/09/16 10:33:23;;;;;;;65.73;4.30;;;18.30;1.00;;;;;;5015150;28;20472;-83
2022/09/16 10:35:56;;;;;;;70.57;3.70;;;18.10;9.20;;;;;;5014843;28;20385;-82
2022/09/16 10:38:25;;;;;;;65.67;3.60;;;18.00;15.10;;;;;;5015381;28;20428;-83
2022/09/16 10:40:54;;;;;;;68.90;6.63;;;17.80;16.90;;;;;;5013524;28;20463;-81
2022/09/16 10:43:21;;;;;;;66.00;6.57;;;17.70;5.80;;;;;;5015237;28;20405;-83
2022/09/16 10:45:51;;;;;;;66.30;5.20;;;17.80;6.20;;;;;;5167805;22;20450;-82
2022/09/16 10:48:20;;;;;;;67.43;8.33;;;17.80;10.00;;;;;;5034310;28;20923;-83
2022/09/16 10:51:21;;;;;;;67.37;7.77;;;17.90;4.90;;;;;;5034967;28;20392;-82
2022/09/16 10:53:54;;;;;;;68.20;7.73;;;18.20;2.30;;;;;;5013328;28;20404;-83
2022/09/16 10:56:23;;;;;;;67.43;7.77;;;18.30;1.00;;;;;;5021234;28;20392;-83
2022/09/16 10:59:05;;;;;;;69.57;8.90;;;18.50;1.00;;;;;;5039533;28;20423;-83
2022/09/16 11:02:08;;;;;;;67.43;4.90;;;18.70;1.00;;;;;;5040065;28;20384;-82
2022/09/16 11:04:45;;;;;;;66.77;6.23;;;19.00;1.00;;;;;;5021730;28;20411;-83
2022/09/16 11:07:27;;;;;;;69.73;8.90;;;19.10;1.00;;;;;;5039468;28;20454;-82
2022/09/16 11:10:08;;;;;;;68.60;10.27;;;19.10;1.00;;;;;;5039455;28;20487;-82
2022/09/16 11:12:39;;;;;;;67.60;6.87;;;19.20;1.00;;;;;;5022082;28;20419;-83
2022/09/16 11:15:19;;;;;;;67.00;2.30;;;19.20;1.00;;;;;;5022858;28;20408;-83
2022/09/16 11:18:09;;;;;;;65.63;2.53;;;19.10;1.00;;;;;;5041250;28;20415;-83
2022/09/16 11:20:56;;;;;;;66.07;2.50;;;19.10;1.00;;;;;;5040854;28;20503;-82
2022/09/16 11:23:37;;;;;;;65.87;2.00;;;19.30;1.00;;;;;;5023106;28;20407;-82
2022/09/16 11:26:22;;;;;;;68.17;2.20;;;19.30;1.00;;;;;;5040679;28;20481;-82
2022/09/16 11:28:59;;;;;;;67.70;2.20;;;19.10;1.00;;;;;;5039977;28;20470;-84
2022/09/16 11:31:47;;;;;;;65.77;2.00;;;19.30;1.00;;;;;;5040541;28;20380;-83
2022/09/16 11:34:15;;;;;;;65.23;2.20;;;19.30;1.00;;;;;;5040832;28;20396;-83
2022/09/16 11:37:11;;;;;;;65.07;2.10;;;19.50;1.00;;;;;;5039887;28;20405;-83
2022/09/16 11:39:48;;;;;;;68.43;2.30;;;19.60;1.00;;;;;;5021757;28;20388;-83
2022/09/16 11:42:32;;;;;;;66.37;2.13;;;19.10;1.00;;;;;;5039400;28;20392;-83
2022/09/16 11:45:17;;;;;;;67.50;2.17;;;19.00;1.00;;;;;;5021622;28;20435;-83
2022/09/16 11:48:10;;;;;;;65.83;2.53;;;19.20;1.00;;;;;;5039200;28;20837;-84
2022/09/16 11:51:08;;;;;;;66.83;2.10;;;19.30;1.00;;;;;;5022589;28;20453;-83
2022/09/16 11:53:55;;;;;;;66.00;2.10;;;19.50;1.00;;;;;;4989404;28;20491;-84
2022/09/16 11:56:32;;;;;;;66.00;2.10;;;19.90;1.00;;;;;;5021756;28;20410;-83
2022/09/16 11:59:42;;;;;;;66.80;2.47;;;19.90;1.00;;;;;;5039688;28;20419;-83
2022/09/16 12:02:08;;;;;;;66.10;2.10;;;19.60;1.00;;;;;;5039158;28;20381;-82
2022/09/16 12:04:42;;;;;;;70.03;2.20;;;19.30;1.00;;;;;;5037193;28;20487;-81
2022/09/16 12:07:39;;;;;;;68.00;2.03;;;19.00;1.00;;;;;;5038355;28;20271;-83
2022/09/16 12:10:14;;;;;;;65.77;2.10;;;18.70;1.00;;;;;;5038689;28;20872;-82
2022/09/16 12:12:49;;;;;;;69.00;3.40;;;18.50;1.00;;;;;;5021425;28;20414;-83
2022/09/16 12:15:33;;;;;;;67.07;5.37;;;18.10;1.00;;;;;;5039290;28;20405;-83
2022/09/16 12:18:09;;;;;;;68.97;6.73;;;17.60;4.80;;;;;;5021667;28;20431;-83
2022/09/16 12:20:41;;;;;;;68.33;7.33;;;17.60;12.20;;;;;;5038598;28;20427;-83
2022/09/16 12:23:16;;;;;;;72.47;8.67;;;17.60;13.70;;;;;;5020631;28;20458;-81
2022/09/16 12:25:44;;;;;;;70.90;6.47;;;17.50;14.30;;;;;;5038241;28;20447;-83
2022/09/16 12:28:30;;;;;;;73.77;5.53;;;17.50;20.10;;;;;;5038878;28;20420;-81
2022/09/16 12:31:23;;;;;;;65.17;3.17;;;17.20;28.90;;;;;;5037871;28;20396;-84
2022/09/16 12:33:57;;;;;;;65.73;3.33;;;17.00;40.70;;;;;;5037376;28;20369;-83
2022/09/16 12:36:29;;;;;;;68.80;3.33;;;16.90;60.00;;;;;;5037594;28;20394;-83
2022/09/16 12:38:58;;;;;;;66.40;3.40;;;16.70;66.80;;;;;;5037270;28;20503;-83
2022/09/16 12:41:42;;;;;;;66.30;3.07;;;16.50;72.10;;;;;;5037602;28;20380;-82
2022/09/16 12:44:51;;;;;;;67.37;4.27;;;16.30;76.30;;;;;;5037185;28;20856;-84
2022/09/16 12:47:25;;;;;;;65.50;6.30;;;16.10;94.00;;;;;;5037378;28;20452;-84
2022/09/16 12:50:16;;;;;;;68.57;7.80;;;15.90;99.90;;;;;;5038894;28;20469;-86
2022/09/16 12:53:07;;;;;;;70.57;10.53;;;15.80;99.90;;;;;;5021455;28;20402;-86
2022/09/16 12:55:48;;;;;;;66.90;10.90;;;15.80;99.90;;;;;;5039841;28;20390;-86
2022/09/16 12:58:38;;;;;;;70.73;13.83;;;15.70;99.90;;;;;;5040910;28;20417;-86
2022/09/16 13:01:23;;;;;;;67.27;11.70;;;15.70;99.90;;;;;;5041387;28;20425;-85
2022/09/16 13:04:28;;;;;;;71.30;11.83;;;15.80;99.90;;;;;;5041011;28;20383;-84
2022/09/16 13:06:58;;;;;;;67.50;12.80;;;16.00;99.90;;;;;;4959147;28;20479;-84